createdAt,value
2022-11-28T00:02:58.500Z,98431.31
2022-11-28T00:06:05.644Z,98425.91
2022-11-28T00:09:10.243Z,98429.53
2022-11-28T00:12:13.297Z,98432.75
2022-11-28T00:15:15.992Z,98422.09
2022-11-28T00:18:18.808Z,98424.81
2022-11-28T00:21:24.061Z,98427.44
2022-11-28T00:24:27.327Z,98418.16
2022-11-28T00:27:30.024Z,98424.53
2022-11-28T00:30:32.831Z,98421.13
2022-11-28T00:33:36.140Z,98426.13
2022-11-28T00:36:40.703Z,98422.91
2022-11-28T00:39:43.891Z,98412.66
2022-11-28T00:42:46.569Z,98420.88
2022-11-28T00:45:49.504Z,98416.06
2022-11-28T00:48:52.993Z,98416.06
2022-11-28T00:51:57.121Z,98410.66
2022-11-28T00:55:00.152Z,98411.44
2022-11-28T00:58:04.151Z,98399.81
2022-11-28T01:01:10.519Z,98400.88
2022-11-28T01:04:15.238Z,98414.75
2022-11-28T01:07:19.224Z,98404.41
2022-11-28T01:10:22.180Z,98394.78
2022-11-28T01:13:25.304Z,98400.00
2022-11-28T01:16:28.910Z,98385.72
2022-11-28T01:19:31.871Z,98385.53
2022-11-28T01:22:36.048Z,98376.66
2022-11-28T01:25:39.146Z,98374.53
2022-11-28T01:28:41.962Z,98378.38
2022-11-28T01:31:44.880Z,98370.03
2022-11-28T01:34:47.591Z,98374.84
2022-11-28T01:37:51.815Z,98389.28
2022-11-28T01:40:55.389Z,98379.63
2022-11-28T01:44:00.027Z,98375.41
2022-11-28T01:47:02.883Z,98385.25
2022-11-28T01:50:07.581Z,98382.31
2022-11-28T01:53:12.226Z,98386.53
2022-11-28T01:56:16.859Z,98374.06
2022-11-28T01:59:20.434Z,98371.72
2022-11-28T02:02:28.848Z,98374.72
2022-11-28T02:05:31.622Z,98361.19
2022-11-28T02:08:36.488Z,98359.06
2022-11-28T02:12:07.399Z,98360.38
2022-11-28T02:15:23.962Z,98350.03
2022-11-28T02:18:35.723Z,98338.50
2022-11-28T02:21:55.159Z,98337.41
2022-11-28T02:25:08.685Z,98334.09
2022-11-28T02:28:55.077Z,98327.16
2022-11-28T02:32:13.374Z,98315.25
2022-11-28T02:35:19.861Z,98312.66
2022-11-28T02:38:28.906Z,98298.91
2022-11-28T02:41:34.774Z,98296.22
2022-11-28T02:44:43.583Z,98296.59
2022-11-28T02:47:50.788Z,98282.03
2022-11-28T02:50:57.323Z,98287.97
2022-11-28T02:54:01.364Z,98304.53
2022-11-28T02:57:04.375Z,98297.91
2022-11-28T03:00:27.477Z,98309.53
2022-11-28T03:03:39.567Z,98286.47
2022-11-28T03:06:52.015Z,98269.19
2022-11-28T03:10:00.862Z,98292.31
2022-11-28T03:13:11.818Z,98264.81
2022-11-28T03:16:19.560Z,98264.03
2022-11-28T03:19:27.983Z,98272.97
2022-11-28T03:22:36.141Z,98273.19
2022-11-28T03:25:49.321Z,98252.13
2022-11-28T03:28:56.810Z,98261.75
2022-11-28T03:32:02.034Z,98267.97
2022-11-28T03:35:08.829Z,98270.56
2022-11-28T03:38:16.297Z,98266.34
2022-11-28T03:41:22.062Z,98266.88
2022-11-28T03:44:27.795Z,98274.13
2022-11-28T03:47:33.816Z,98258.22
2022-11-28T03:50:42.495Z,98262.34
2022-11-28T03:53:51.450Z,98263.13
2022-11-28T03:56:58.883Z,98249.69
2022-11-28T04:00:04.189Z,98246.25
2022-11-28T04:03:11.889Z,98246.25
2022-11-28T04:06:21.326Z,98240.84
2022-11-28T04:09:33.900Z,98244.16
2022-11-28T04:12:46.184Z,98248.88
2022-11-28T04:15:53.412Z,98248.47
2022-11-28T04:19:00.371Z,98232.94
2022-11-28T04:22:06.982Z,98254.69
2022-11-28T04:25:13.958Z,98257.72
2022-11-28T04:28:21.474Z,98256.50
2022-11-28T04:31:25.226Z,98255.16
2022-11-28T04:34:27.973Z,98244.34
2022-11-28T04:37:33.839Z,98250.38
2022-11-28T04:40:48.008Z,98247.13
2022-11-28T04:43:53.609Z,98239.91
2022-11-28T04:46:57.389Z,98227.38
2022-11-28T04:49:59.876Z,98228.78
2022-11-28T04:53:07.116Z,98228.56
2022-11-28T04:56:13.646Z,98230.53
2022-11-28T04:59:16.529Z,98226.53
2022-11-28T05:02:20.870Z,98230.63
2022-11-28T05:05:25.872Z,98219.13
2022-11-28T05:08:30.062Z,98221.34
2022-11-28T05:11:33.197Z,98217.59
2022-11-28T05:14:35.893Z,98207.34
2022-11-28T05:17:42.460Z,98220.88
2022-11-28T05:20:45.821Z,98213.56
2022-11-28T05:23:49.974Z,98219.50
2022-11-28T05:26:52.780Z,98221.13
2022-11-28T05:29:55.345Z,98233.03
2022-11-28T05:32:59.590Z,98235.97
2022-11-28T05:36:08.509Z,98241.59
2022-11-28T05:39:15.393Z,98232.69
2022-11-28T05:42:18.019Z,98237.22
2022-11-28T05:45:23.582Z,98238.28
2022-11-28T05:48:27.028Z,98237.22
2022-11-28T05:51:30.666Z,98255.81
2022-11-28T05:54:34.846Z,98243.53
2022-11-28T05:57:37.582Z,98242.75
2022-11-28T06:00:40.418Z,98240.03
2022-11-28T06:03:44.432Z,98248.69
2022-11-28T06:06:47.194Z,98244.06
2022-11-28T06:09:51.950Z,98245.91
2022-11-28T06:12:54.990Z,98249.81
2022-11-28T06:15:57.643Z,98252.31
2022-11-28T06:19:03.097Z,98250.06
2022-11-28T06:22:06.727Z,98250.88
2022-11-28T06:25:11.446Z,98252.28
2022-11-28T06:28:14.603Z,98252.91
2022-11-28T06:31:20.018Z,98256.34
2022-11-28T06:34:22.962Z,98250.78
2022-11-28T06:37:26.021Z,98252.19
2022-11-28T06:40:30.149Z,98257.22
2022-11-28T06:43:33.897Z,98266.22
2022-11-28T06:46:37.091Z,98260.91
2022-11-28T06:49:40.810Z,98248.53
2022-11-28T06:52:44.423Z,98253.06
2022-11-28T06:55:49.039Z,98254.25
2022-11-28T06:58:56.455Z,98251.97
2022-11-28T07:02:07.415Z,98241.13
2022-11-28T07:05:11.788Z,98245.44
2022-11-28T07:08:14.614Z,98251.06
2022-11-28T07:11:20.690Z,98262.72
2022-11-28T07:14:24.105Z,98259.09
2022-11-28T07:17:27.128Z,98257.63
2022-11-28T07:20:29.805Z,98263.75
2022-11-28T07:23:33.149Z,98253.72
2022-11-28T07:26:38.217Z,98267.38
2022-11-28T07:29:41.490Z,98261.53
2022-11-28T07:32:44.375Z,98284.25
2022-11-28T07:35:47.211Z,98278.91
2022-11-28T07:38:51.997Z,98279.63
2022-11-28T07:41:56.120Z,98277.03
2022-11-28T07:44:58.999Z,98270.19
2022-11-28T07:48:02.295Z,98271.22
2022-11-28T07:51:06.962Z,98266.19
2022-11-28T07:54:10.044Z,98254.41
2022-11-28T07:57:14.319Z,98265.16
2022-11-28T08:00:18.563Z,98268.44
2022-11-28T08:03:21.245Z,98269.66
2022-11-28T08:06:25.791Z,98257.28
2022-11-28T08:09:28.737Z,98273.56
2022-11-28T08:12:32.996Z,98266.13
2022-11-28T08:15:37.669Z,98267.66
2022-11-28T08:18:40.391Z,98272.75
2022-11-28T08:21:43.573Z,98272.22
2022-11-28T08:24:46.148Z,98269.56
2022-11-28T08:27:50.352Z,98276.47
2022-11-28T08:30:53.116Z,98273.94
2022-11-28T08:33:57.770Z,98281.97
2022-11-28T08:37:00.891Z,98272.63
2022-11-28T08:40:04.115Z,98270.28
2022-11-28T08:43:08.407Z,98261.53
2022-11-28T08:46:13.300Z,98261.84
2022-11-28T08:49:16.158Z,98257.22
2022-11-28T08:52:18.843Z,98274.81
2022-11-28T08:55:25.121Z,98272.09
2022-11-28T08:58:35.999Z,98258.22
2022-11-28T09:01:39.565Z,98259.53
2022-11-28T09:04:42.472Z,98260.44
2022-11-28T09:07:45.370Z,98262.25
2022-11-28T09:10:48.682Z,98270.75
2022-11-28T09:13:52.787Z,98269.97
2022-11-28T09:16:55.609Z,98271.28
2022-11-28T09:19:58.280Z,98264.13
2022-11-28T09:23:01.444Z,98266.03
2022-11-28T09:26:09.363Z,98263.31
2022-11-28T09:29:13.461Z,98269.44
2022-11-28T09:32:16.103Z,98275.53
2022-11-28T09:35:19.187Z,98278.75
2022-11-28T09:38:22.543Z,98287.72
2022-11-28T09:41:37.202Z,98287.88
2022-11-28T09:44:45.268Z,98269.91
2022-11-28T09:47:51.702Z,98272.03
2022-11-28T09:50:57.569Z,98268.31
2022-11-28T09:54:05.818Z,98266.41
2022-11-28T09:57:13.889Z,98265.94
2022-11-28T10:00:21.618Z,98258.06
2022-11-28T10:03:36.783Z,98243.25
2022-11-28T10:06:44.199Z,98256.38
2022-11-28T10:09:52.819Z,98262.53
2022-11-28T10:13:00.956Z,98262.53
2022-11-28T10:16:10.031Z,98271.19
2022-11-28T10:19:46.057Z,98272.28
2022-11-28T10:22:43.402Z,98268.75
2022-11-28T10:25:52.078Z,98270.81
2022-11-28T10:28:57.932Z,98275.94
2022-11-28T10:32:03.630Z,98270.28
2022-11-28T10:35:07.880Z,98254.84
2022-11-28T10:38:14.610Z,98257.75
2022-11-28T10:41:21.183Z,98262.22
2022-11-28T10:44:27.486Z,98249.19
2022-11-28T10:47:49.925Z,98256.88
2022-11-28T10:50:59.838Z,98259.03
2022-11-28T10:54:13.790Z,98265.41
2022-11-28T10:57:16.573Z,98260.66
2022-11-28T11:00:20.565Z,98260.50
2022-11-28T11:03:28.969Z,98264.38
2022-11-28T11:06:41.299Z,98272.00
2022-11-28T11:09:50.677Z,98265.25
2022-11-28T11:12:53.750Z,98262.06
2022-11-28T11:16:00.850Z,98268.81
2022-11-28T11:19:05.179Z,98264.09
2022-11-28T11:22:19.163Z,98255.75
2022-11-28T11:25:22.603Z,98252.16
2022-11-28T11:28:37.700Z,98256.03
2022-11-28T11:31:44.026Z,98247.13
2022-11-28T11:34:48.443Z,98241.91
2022-11-28T11:37:51.935Z,98249.25
2022-11-28T11:40:54.679Z,98246.41
2022-11-28T11:43:58.421Z,98240.78
2022-11-28T11:47:04.094Z,98240.31
2022-11-28T11:50:17.769Z,98230.44
2022-11-28T11:53:20.741Z,98237.31
2022-11-28T11:56:23.643Z,98236.53
2022-11-28T11:59:30.489Z,98242.09
2022-11-28T12:02:37.238Z,98242.72
2022-11-28T12:06:13.266Z,98246.25
2022-11-28T12:09:18.112Z,98243.19
2022-11-28T12:12:24.015Z,98235.44
2022-11-28T12:15:33.557Z,98232.25
2022-11-28T12:18:45.583Z,98233.03
2022-11-28T12:22:02.902Z,98229.34
2022-11-28T12:25:13.311Z,98225.25
2022-11-28T12:28:23.959Z,98220.31
2022-11-28T12:31:36.928Z,98216.34
2022-11-28T12:34:48.531Z,98214.50
2022-11-28T12:38:10.736Z,98215.91
2022-11-28T12:41:32.011Z,98204.72
2022-11-28T12:44:48.509Z,98199.16
2022-11-28T12:47:56.716Z,98197.13
2022-11-28T12:51:02.314Z,98196.19
2022-11-28T12:54:16.781Z,98199.97
2022-11-28T12:57:24.360Z,98204.22
2022-11-28T13:00:28.678Z,98216.44
2022-11-28T13:03:41.517Z,98210.00
2022-11-28T13:06:50.343Z,98212.06
2022-11-28T13:10:02.778Z,98211.13
2022-11-28T13:13:09.756Z,98204.19
2022-11-28T13:16:22.032Z,98192.41
2022-11-28T13:19:35.599Z,98188.81
2022-11-28T13:22:43.825Z,98185.91
2022-11-28T13:25:52.166Z,98188.56
2022-11-28T13:28:58.491Z,98186.03
2022-11-28T13:32:08.698Z,98183.66
2022-11-28T13:35:12.963Z,98175.09
2022-11-28T13:38:37.268Z,98180.16
2022-11-28T13:42:10.006Z,98181.38
2022-11-28T13:45:25.129Z,98182.41
2022-11-28T13:52:43.700Z,98185.59
2022-11-28T13:55:48.267Z,98178.50
2022-11-28T13:58:54.769Z,98179.44
2022-11-28T14:01:59.872Z,98185.56
2022-11-28T14:05:03.510Z,98184.25
2022-11-28T14:08:07.370Z,98173.41
2022-11-28T14:11:46.453Z,98177.47
2022-11-28T14:15:10.026Z,98172.47
2022-11-28T14:18:56.124Z,98173.59
2022-11-28T14:22:03.827Z,98169.44
2022-11-28T14:25:11.721Z,98175.47
2022-11-28T14:28:22.941Z,98172.16
2022-11-28T14:31:32.321Z,98174.47
2022-11-28T14:34:40.375Z,98170.22
2022-11-28T14:37:55.718Z,98175.00
2022-11-28T14:41:03.831Z,98180.59
2022-11-28T14:44:45.725Z,98175.59
2022-11-28T14:48:14.508Z,98184.41
2022-11-28T14:51:17.253Z,98176.56
2022-11-28T14:54:22.060Z,98183.09
2022-11-28T14:57:27.940Z,98188.91
2022-11-28T15:00:35.424Z,98186.59
2022-11-28T15:03:44.810Z,98189.19
2022-11-28T15:06:50.310Z,98190.28
2022-11-28T15:10:07.295Z,98189.50
2022-11-28T15:13:29.199Z,98183.41
2022-11-28T15:16:33.557Z,98178.75
2022-11-28T15:19:41.803Z,98177.81
2022-11-28T15:22:45.608Z,98183.47
2022-11-28T15:25:55.049Z,98186.34
2022-11-28T15:29:11.001Z,98187.31
2022-11-28T15:32:15.038Z,98184.44
2022-11-28T15:35:19.489Z,98186.22
2022-11-28T15:38:22.586Z,98192.66
2022-11-28T15:41:26.961Z,98192.97
2022-11-28T15:44:32.428Z,98192.19
2022-11-28T15:47:36.213Z,98193.63
2022-11-28T15:50:51.399Z,98190.28
2022-11-28T15:53:54.660Z,98193.78
2022-11-28T15:56:58.223Z,98187.41
2022-11-28T16:00:03.105Z,98187.91
2022-11-28T16:03:06.719Z,98194.94
2022-11-28T16:06:11.820Z,98186.78
2022-11-28T16:09:29.371Z,98189.50
2022-11-28T16:12:32.668Z,98189.31
2022-11-28T16:15:35.866Z,98191.41
2022-11-28T16:18:38.879Z,98193.81
2022-11-28T16:21:46.708Z,98194.16
2022-11-28T16:24:51.177Z,98190.94
2022-11-28T16:27:56.546Z,98196.06
2022-11-28T16:30:59.157Z,98204.06
2022-11-28T16:34:03.476Z,98206.00
2022-11-28T16:37:11.492Z,98198.94
2022-11-28T16:40:17.262Z,98202.13
2022-11-28T16:43:21.740Z,98195.59
2022-11-28T16:46:26.551Z,98202.63
2022-11-28T16:49:35.812Z,98195.91
2022-11-28T16:52:46.909Z,98205.53
2022-11-28T16:55:49.960Z,98202.78
2022-11-28T16:58:52.888Z,98202.63
2022-11-28T17:01:55.705Z,98206.94
2022-11-28T17:04:58.415Z,98202.63
2022-11-28T17:08:02.684Z,98197.81
2022-11-28T17:11:05.810Z,98196.84
2022-11-28T17:14:13.486Z,98198.13
2022-11-28T17:17:18.016Z,98193.16
2022-11-28T17:20:20.832Z,98191.41
2022-11-28T17:23:26.272Z,98197.31
2022-11-28T17:26:29.146Z,98191.38
2022-11-28T17:29:32.206Z,98198.44
2022-11-28T17:32:34.816Z,98187.53
2022-11-28T17:35:40.330Z,98186.44
2022-11-28T17:38:44.802Z,98185.31
2022-11-28T17:41:48.359Z,98192.34
2022-11-28T17:44:51.579Z,98197.16
2022-11-28T17:47:54.781Z,98177.31
2022-11-28T17:50:57.516Z,98179.88
2022-11-28T17:54:01.568Z,98184.19
2022-11-28T17:57:04.394Z,98176.19
2022-11-28T18:00:08.511Z,98181.00
2022-11-28T18:03:11.663Z,98184.34
2022-11-28T18:06:18.307Z,98189.31
2022-11-28T18:09:22.499Z,98198.44
2022-11-28T18:12:25.709Z,98192.03
2022-11-28T18:15:28.657Z,98196.84
2022-11-28T18:18:33.181Z,98197.63
2022-11-28T18:21:36.777Z,98199.06
2022-11-28T18:24:41.217Z,98199.88
2022-11-28T18:27:44.910Z,98205.78
2022-11-28T18:30:48.276Z,98198.75
2022-11-28T18:33:51.149Z,98198.75
2022-11-28T18:37:00.155Z,98198.91
2022-11-28T18:40:08.905Z,98201.44
2022-11-28T18:43:12.015Z,98211.22
2022-11-28T18:46:17.074Z,98206.13
2022-11-28T18:49:20.550Z,98219.59
2022-11-28T18:52:23.228Z,98214.75
2022-11-28T18:55:27.484Z,98228.84
2022-11-28T18:58:31.076Z,98220.34
2022-11-28T19:01:35.572Z,98211.38
2022-11-28T19:04:38.579Z,98217.47
2022-11-28T19:07:41.370Z,98223.38
2022-11-28T19:10:45.623Z,98220.34
2022-11-28T19:13:51.573Z,98223.38
2022-11-28T19:16:54.390Z,98227.22
2022-11-28T19:19:57.136Z,98221.28
2022-11-28T19:22:59.706Z,98221.59
2022-11-28T19:26:04.396Z,98219.22
2022-11-28T19:29:07.835Z,98216.97
2022-11-28T19:32:10.548Z,98211.19
2022-11-28T19:35:13.861Z,98217.47
2022-11-28T19:38:16.638Z,98223.38
2022-11-28T19:41:22.184Z,98213.91
2022-11-28T19:44:26.588Z,98217.75
2022-11-28T19:47:29.439Z,98213.44
2022-11-28T19:50:32.024Z,98217.56
2022-11-28T19:53:37.816Z,98219.34
2022-11-28T19:56:41.930Z,98213.59
2022-11-28T19:59:44.760Z,98219.22
2022-11-28T20:02:47.754Z,98221.59
2022-11-28T20:05:50.504Z,98221.94
2022-11-28T20:08:54.174Z,98224.00
2022-11-28T20:11:58.055Z,98227.22
2022-11-28T20:15:02.254Z,98218.88
2022-11-28T20:18:05.380Z,98224.66
2022-11-28T20:21:09.603Z,98223.66
2022-11-28T20:24:12.506Z,98225.13
2022-11-28T20:27:16.700Z,98231.03
2022-11-28T20:30:20.041Z,98234.56
2022-11-28T20:33:23.045Z,98232.94
2022-11-28T20:36:27.317Z,98240.50
2022-11-28T20:39:29.941Z,98239.38
2022-11-28T20:42:39.770Z,98240.66
2022-11-28T20:45:42.910Z,98239.06
2022-11-28T20:48:45.616Z,98244.31
2022-11-28T20:51:50.404Z,98234.06
2022-11-28T20:54:53.120Z,98239.03
2022-11-28T20:57:57.421Z,98244.63
2022-11-28T21:01:00.246Z,98245.75
2022-11-28T21:04:03.864Z,98241.78
2022-11-28T21:07:06.637Z,98231.34
2022-11-28T21:10:10.055Z,98231.22
2022-11-28T21:13:14.336Z,98237.78
2022-11-28T21:16:18.981Z,98238.41
2022-11-28T21:19:21.771Z,98237.28
2022-11-28T21:22:24.352Z,98236.94
2022-11-28T21:25:27.123Z,98241.31
2022-11-28T21:28:31.596Z,98240.00
2022-11-28T21:31:36.058Z,98244.31
2022-11-28T21:34:38.805Z,98243.50
2022-11-28T21:37:41.436Z,98245.94
2022-11-28T21:40:44.148Z,98239.03
2022-11-28T21:43:48.968Z,98236.00
2022-11-28T21:46:51.617Z,98249.63
2022-11-28T21:49:54.513Z,98247.03
2022-11-28T21:52:57.220Z,98245.44
2022-11-28T21:56:00.695Z,98249.75
2022-11-28T21:59:04.830Z,98248.16
2022-11-28T22:02:11.590Z,98250.25
2022-11-28T22:05:14.532Z,98252.47
2022-11-28T22:08:17.173Z,98246.75
2022-11-28T22:11:20.517Z,98249.75
2022-11-28T22:14:24.468Z,98258.41
2022-11-28T22:17:27.026Z,98249.75
2022-11-28T22:20:29.653Z,98250.06
2022-11-28T22:23:34.828Z,98255.53
2022-11-28T22:26:37.458Z,98247.19
2022-11-28T22:29:41.686Z,98252.78
2022-11-28T22:32:44.395Z,98253.44
2022-11-28T22:35:47.199Z,98249.91
2022-11-28T22:38:50.699Z,98250.41
2022-11-28T22:41:53.273Z,98255.84
2022-11-28T22:44:57.210Z,98258.84
2022-11-28T22:47:59.923Z,98249.75
2022-11-28T22:51:07.640Z,98258.69
2022-11-28T22:54:12.831Z,98255.50
2022-11-28T22:57:15.390Z,98262.41
2022-11-28T23:00:20.560Z,98262.56
2022-11-28T23:03:23.593Z,98267.88
2022-11-28T23:06:28.126Z,98265.94
2022-11-28T23:09:31.035Z,98256.66
2022-11-28T23:12:33.709Z,98258.72
2022-11-28T23:15:41.736Z,98263.34
2022-11-28T23:18:49.390Z,98263.34
2022-11-28T23:21:52.239Z,98263.34
2022-11-28T23:24:55.275Z,98260.81
2022-11-28T23:27:58.032Z,98259.97
2022-11-28T23:31:10.277Z,98266.41
2022-11-28T23:34:13.746Z,98269.91
2022-11-28T23:37:16.676Z,98264.00
2022-11-28T23:40:19.413Z,98267.06
2022-11-28T23:43:22.318Z,98268.19
2022-11-28T23:46:28.282Z,98268.50
2022-11-28T23:49:31.289Z,98267.38
2022-11-28T23:52:34.565Z,98265.31
2022-11-28T23:55:37.337Z,98271.25
2022-11-28T23:58:40.715Z,98265.47
